createdAt,value
2023-01-09T00:02:07.228Z,2.50
2023-01-09T00:04:34.579Z,2.40
2023-01-09T00:07:01.605Z,2.40
2023-01-09T00:09:28.692Z,2.40
2023-01-09T00:11:55.887Z,2.50
2023-01-09T00:14:24.102Z,2.40
2023-01-09T00:16:51.191Z,2.40
2023-01-09T00:19:18.243Z,2.40
2023-01-09T00:21:45.319Z,2.40
2023-01-09T00:24:12.469Z,2.50
2023-01-09T00:26:39.533Z,2.50
2023-01-09T00:29:11.296Z,2.50
2023-01-09T00:31:38.370Z,2.40
2023-01-09T00:34:07.789Z,2.40
2023-01-09T00:36:34.903Z,2.40
2023-01-09T00:39:02.360Z,2.30
2023-01-09T00:41:35.475Z,2.30
2023-01-09T00:44:13.600Z,2.20
2023-01-09T00:46:45.240Z,2.20
2023-01-09T00:49:14.359Z,2.20
2023-01-09T00:51:42.289Z,2.10
2023-01-09T00:54:15.397Z,2.10
2023-01-09T00:56:42.644Z,2.10
2023-01-09T00:59:09.994Z,2.20
2023-01-09T01:01:37.229Z,2.20
2023-01-09T01:04:24.527Z,2.10
2023-01-09T01:07:10.094Z,2.10
2023-01-09T01:09:37.248Z,2.20
2023-01-09T01:12:07.363Z,2.20
2023-01-09T01:14:38.339Z,2.30
2023-01-09T01:17:06.048Z,2.30
2023-01-09T01:19:34.479Z,2.40
2023-01-09T01:22:01.853Z,2.40
2023-01-09T01:24:28.973Z,2.30
2023-01-09T01:26:56.094Z,2.30
2023-01-09T01:29:23.166Z,2.40
2023-01-09T01:31:52.059Z,2.30
2023-01-09T01:34:19.279Z,2.30
2023-01-09T01:36:46.366Z,2.30
2023-01-09T01:39:13.618Z,2.30
2023-01-09T01:41:40.680Z,2.30
2023-01-09T01:44:46.315Z,2.30
2023-01-09T01:47:13.752Z,2.30
2023-01-09T01:49:41.055Z,2.30
2023-01-09T01:52:08.344Z,2.30
2023-01-09T01:54:35.438Z,2.30
2023-01-09T01:57:05.001Z,2.30
2023-01-09T01:59:37.936Z,2.20
2023-01-09T02:02:05.583Z,2.20
2023-01-09T02:04:35.486Z,2.20
2023-01-09T02:07:07.457Z,2.20
2023-01-09T02:09:34.833Z,2.30
2023-01-09T02:12:02.667Z,2.30
2023-01-09T02:14:32.040Z,2.30
2023-01-09T02:17:43.850Z,2.30
2023-01-09T02:20:25.286Z,2.20
2023-01-09T02:23:29.657Z,2.30
2023-01-09T02:26:17.963Z,2.30
2023-01-09T02:29:11.428Z,2.30
2023-01-09T02:31:48.836Z,2.30
2023-01-09T02:34:32.454Z,2.20
2023-01-09T02:37:05.240Z,2.20
2023-01-09T02:39:51.727Z,2.20
2023-01-09T02:42:23.852Z,2.30
2023-01-09T02:44:51.519Z,2.30
2023-01-09T02:47:18.535Z,2.30
2023-01-09T02:50:35.168Z,2.20
2023-01-09T02:53:24.329Z,2.20
2023-01-09T02:56:03.531Z,2.30
2023-01-09T02:58:51.723Z,2.30
2023-01-09T03:01:52.622Z,2.30
2023-01-09T03:04:38.929Z,2.30
2023-01-09T03:07:14.075Z,2.20
2023-01-09T03:09:43.474Z,2.30
2023-01-09T03:12:25.443Z,2.30
2023-01-09T03:14:56.619Z,2.30
2023-01-09T03:17:29.977Z,2.20
2023-01-09T03:19:59.091Z,2.30
2023-01-09T03:22:26.210Z,2.30
2023-01-09T03:24:54.362Z,2.30
2023-01-09T03:27:21.488Z,2.20
2023-01-09T03:29:48.604Z,2.20
2023-01-09T03:32:15.794Z,2.20
2023-01-09T03:34:42.977Z,2.30
2023-01-09T03:37:10.086Z,2.30
2023-01-09T03:39:37.179Z,2.30
2023-01-09T03:42:04.398Z,2.20
2023-01-09T03:44:31.469Z,2.30
2023-01-09T03:46:58.515Z,2.30
2023-01-09T03:49:25.548Z,2.30
2023-01-09T03:51:52.615Z,2.40
2023-01-09T03:54:19.659Z,2.30
2023-01-09T03:56:46.743Z,2.40
2023-01-09T03:59:13.848Z,2.40
2023-01-09T04:01:40.972Z,2.50
2023-01-09T04:04:08.132Z,2.50
2023-01-09T04:06:35.295Z,2.50
2023-01-09T04:09:02.406Z,2.50
2023-01-09T04:11:29.424Z,2.60
2023-01-09T04:13:56.483Z,2.70
2023-01-09T04:16:23.649Z,2.70
2023-01-09T04:18:50.749Z,2.70
2023-01-09T04:21:17.929Z,2.70
2023-01-09T04:23:45.564Z,2.80
2023-01-09T04:26:12.675Z,2.80
2023-01-09T04:28:39.734Z,2.80
2023-01-09T04:31:06.801Z,2.90
2023-01-09T04:33:34.702Z,2.90
2023-01-09T04:36:01.792Z,2.90
2023-01-09T04:38:28.852Z,2.90
2023-01-09T04:40:55.899Z,2.90
2023-01-09T04:43:22.925Z,2.90
2023-01-09T04:45:50.064Z,2.80
2023-01-09T04:48:17.187Z,2.80
2023-01-09T04:50:44.263Z,2.80
2023-01-09T04:53:11.395Z,2.80
2023-01-09T04:55:38.485Z,2.80
2023-01-09T04:58:05.579Z,2.80
2023-01-09T05:00:32.723Z,2.80
2023-01-09T05:02:59.812Z,2.80
2023-01-09T05:05:26.890Z,2.80
2023-01-09T05:07:53.943Z,2.80
2023-01-09T05:10:20.993Z,2.80
2023-01-09T05:12:48.081Z,2.70
2023-01-09T05:15:15.096Z,2.70
2023-01-09T05:17:42.176Z,2.60
2023-01-09T05:20:09.769Z,2.60
2023-01-09T05:22:36.859Z,2.60
2023-01-09T05:25:04.044Z,2.50
2023-01-09T05:27:31.079Z,2.60
2023-01-09T05:29:58.155Z,2.50
2023-01-09T05:32:25.222Z,2.50
2023-01-09T05:34:52.245Z,2.50
2023-01-09T05:37:19.312Z,2.50
2023-01-09T05:39:46.348Z,2.50
2023-01-09T05:42:13.366Z,2.50
2023-01-09T05:44:40.478Z,2.50
2023-01-09T05:47:07.608Z,2.50
2023-01-09T05:49:34.613Z,2.60
2023-01-09T05:52:01.653Z,2.60
2023-01-09T05:54:28.647Z,2.60
2023-01-09T05:56:55.699Z,2.70
2023-01-09T05:59:22.745Z,2.70
2023-01-09T06:01:49.805Z,2.70
2023-01-09T06:04:16.849Z,2.70
2023-01-09T06:06:43.988Z,2.70
2023-01-09T06:09:11.295Z,2.70
2023-01-09T06:11:38.735Z,2.80
2023-01-09T06:14:06.611Z,2.80
2023-01-09T06:16:33.849Z,2.80
2023-01-09T06:19:00.913Z,2.80
2023-01-09T06:21:29.756Z,2.80
2023-01-09T06:23:56.923Z,2.90
2023-01-09T06:26:24.857Z,2.90
2023-01-09T06:28:52.266Z,2.80
2023-01-09T06:31:19.500Z,2.90
2023-01-09T06:33:46.525Z,2.90
2023-01-09T06:36:13.691Z,3.00
2023-01-09T06:38:40.869Z,2.90
2023-01-09T06:41:07.903Z,2.90
2023-01-09T06:43:35.022Z,3.00
2023-01-09T06:46:02.314Z,3.00
2023-01-09T06:48:29.367Z,3.10
2023-01-09T06:50:56.430Z,3.10
2023-01-09T06:53:24.064Z,3.00
2023-01-09T06:55:51.079Z,3.00
2023-01-09T06:58:18.771Z,3.00
2023-01-09T07:00:45.754Z,3.10
2023-01-09T07:03:19.707Z,3.10
2023-01-09T07:05:47.638Z,3.10
2023-01-09T07:08:15.191Z,3.10
2023-01-09T07:10:43.599Z,3.10
2023-01-09T07:13:10.866Z,3.10
2023-01-09T07:15:37.899Z,3.10
2023-01-09T07:18:05.100Z,3.10
2023-01-09T07:20:32.233Z,3.10
2023-01-09T07:22:59.378Z,3.10
2023-01-09T07:25:26.508Z,3.10
2023-01-09T07:27:53.568Z,3.10
2023-01-09T07:30:20.631Z,3.10
2023-01-09T07:32:47.669Z,3.20
2023-01-09T07:35:14.924Z,3.20
2023-01-09T07:37:42.028Z,3.20
2023-01-09T07:40:10.025Z,3.20
2023-01-09T07:42:37.092Z,3.20
2023-01-09T07:45:05.248Z,3.30
2023-01-09T07:47:32.343Z,3.30
2023-01-09T07:49:59.371Z,3.30
2023-01-09T07:52:28.061Z,3.30
2023-01-09T07:54:55.088Z,3.30
2023-01-09T07:57:22.244Z,3.40
2023-01-09T07:59:49.243Z,3.40
2023-01-09T08:02:18.220Z,3.40
2023-01-09T08:04:45.327Z,3.50
2023-01-09T08:07:12.533Z,3.50
2023-01-09T08:09:39.714Z,3.50
2023-01-09T08:12:07.794Z,3.50
2023-01-09T08:14:36.086Z,3.60
2023-01-09T08:17:03.151Z,3.60
2023-01-09T08:19:30.271Z,3.60
2023-01-09T08:21:57.308Z,3.70
2023-01-09T08:24:24.339Z,3.70
2023-01-09T08:26:51.381Z,3.70
2023-01-09T08:29:18.441Z,3.70
2023-01-09T08:31:45.596Z,3.80
2023-01-09T08:34:12.676Z,3.80
2023-01-09T08:36:39.689Z,3.80
2023-01-09T08:39:06.712Z,3.80
2023-01-09T08:41:52.080Z,3.90
2023-01-09T08:44:37.663Z,3.90
2023-01-09T08:47:07.606Z,3.90
2023-01-09T08:49:36.632Z,3.90
2023-01-09T08:52:04.711Z,4.00
2023-01-09T08:54:32.223Z,4.00
2023-01-09T08:56:59.304Z,4.00
2023-01-09T08:59:26.440Z,4.10
2023-01-09T09:01:53.531Z,4.10
2023-01-09T09:04:20.732Z,4.10
2023-01-09T09:06:47.977Z,4.10
2023-01-09T09:09:15.250Z,4.10
2023-01-09T09:11:42.431Z,4.10
2023-01-09T09:14:28.264Z,4.10
2023-01-09T09:16:55.484Z,4.20
2023-01-09T09:19:22.559Z,4.20
2023-01-09T09:21:49.634Z,4.20
2023-01-09T09:24:16.681Z,4.20
2023-01-09T09:26:44.684Z,4.30
2023-01-09T09:29:12.282Z,4.30
2023-01-09T09:31:39.431Z,4.40
2023-01-09T09:34:07.646Z,4.40
2023-01-09T09:36:34.904Z,4.40
2023-01-09T09:39:02.911Z,4.50
2023-01-09T09:42:14.318Z,4.60
2023-01-09T09:45:16.726Z,4.60
2023-01-09T09:47:53.759Z,4.60
2023-01-09T09:50:49.706Z,4.70
2023-01-09T09:53:20.303Z,4.70
2023-01-09T09:55:49.721Z,4.70
2023-01-09T09:58:21.964Z,4.80
2023-01-09T10:00:50.825Z,4.90
2023-01-09T10:03:40.239Z,4.90
2023-01-09T10:06:17.150Z,5.00
2023-01-09T10:08:57.226Z,5.00
2023-01-09T10:11:47.698Z,5.10
2023-01-09T10:14:23.734Z,5.20
2023-01-09T10:17:09.328Z,5.30
2023-01-09T10:20:30.288Z,5.30
2023-01-09T10:23:27.458Z,5.40
2023-01-09T10:26:06.576Z,5.40
2023-01-09T10:28:50.359Z,5.50
2023-01-09T10:31:30.188Z,5.50
2023-01-09T10:34:09.332Z,5.60
2023-01-09T10:37:16.261Z,5.70
2023-01-09T10:39:55.926Z,5.70
2023-01-09T10:42:48.775Z,5.80
2023-01-09T10:45:37.400Z,5.80
2023-01-09T10:48:18.278Z,5.90
2023-01-09T10:50:48.040Z,5.90
2023-01-09T10:53:20.336Z,5.90
2023-01-09T10:55:48.833Z,6.00
2023-01-09T10:58:21.053Z,6.00
2023-01-09T11:00:49.651Z,6.00
2023-01-09T11:03:20.607Z,6.10
2023-01-09T11:05:53.171Z,6.10
2023-01-09T11:08:42.865Z,6.10
2023-01-09T11:11:12.846Z,6.20
2023-01-09T11:13:45.475Z,6.20
2023-01-09T11:16:21.559Z,6.20
2023-01-09T11:18:59.145Z,6.30
2023-01-09T11:21:40.768Z,6.30
2023-01-09T11:24:21.369Z,6.30
2023-01-09T11:26:53.657Z,6.30
2023-01-09T11:29:26.716Z,6.40
2023-01-09T11:31:58.982Z,6.50
2023-01-09T11:34:31.717Z,6.50
2023-01-09T11:37:14.027Z,6.50
2023-01-09T11:39:48.191Z,6.50
2023-01-09T11:42:42.759Z,6.50
2023-01-09T11:45:21.384Z,6.50
2023-01-09T11:47:48.472Z,6.50
2023-01-09T11:50:21.360Z,6.50
2023-01-09T11:53:16.274Z,6.60
2023-01-09T11:55:44.527Z,6.60
2023-01-09T11:58:16.842Z,6.70
2023-01-09T12:01:07.962Z,6.70
2023-01-09T12:03:40.789Z,6.70
2023-01-09T12:06:17.030Z,6.70
2023-01-09T12:08:46.976Z,6.70
2023-01-09T12:11:31.452Z,6.70
2023-01-09T12:14:10.434Z,6.70
2023-01-09T12:17:08.336Z,6.70
2023-01-09T12:20:13.178Z,6.70
2023-01-09T12:23:12.159Z,6.70
2023-01-09T12:25:52.471Z,6.80
2023-01-09T12:28:34.449Z,6.70
2023-01-09T12:31:36.685Z,6.70
2023-01-09T12:34:40.465Z,6.70
2023-01-09T12:37:39.467Z,6.70
2023-01-09T12:40:24.438Z,6.80
2023-01-09T12:43:05.938Z,6.80
2023-01-09T12:45:51.720Z,6.80
2023-01-09T12:48:43.435Z,6.80
2023-01-09T12:51:20.893Z,6.80
2023-01-09T12:53:57.487Z,6.80
2023-01-09T12:56:30.967Z,6.80
2023-01-09T12:59:04.946Z,6.80
2023-01-09T13:01:42.568Z,6.80
2023-01-09T13:04:15.056Z,6.80
2023-01-09T13:06:47.010Z,6.80
2023-01-09T13:09:41.762Z,6.80
2023-01-09T13:12:21.419Z,6.80
2023-01-09T13:15:15.110Z,6.90
2023-01-09T13:18:08.669Z,7.00
2023-01-09T13:20:46.624Z,7.00
2023-01-09T13:23:40.391Z,7.00
2023-01-09T13:26:15.081Z,7.00
2023-01-09T13:28:47.189Z,7.10
2023-01-09T13:31:36.448Z,7.00
2023-01-09T13:34:17.707Z,7.10
2023-01-09T13:36:52.404Z,7.00
2023-01-09T13:39:30.060Z,7.00
2023-01-09T13:42:20.766Z,7.00
2023-01-09T13:44:50.127Z,7.00
2023-01-09T13:47:28.601Z,7.10
2023-01-09T13:50:09.485Z,7.10
2023-01-09T13:52:41.946Z,7.10
2023-01-09T13:55:12.069Z,7.10
2023-01-09T13:57:43.984Z,7.10
2023-01-09T14:00:14.701Z,7.10
2023-01-09T14:02:42.540Z,7.10
2023-01-09T14:05:24.869Z,7.10
2023-01-09T14:08:10.786Z,7.10
2023-01-09T14:10:49.239Z,7.00
2023-01-09T14:13:23.828Z,7.10
2023-01-09T14:15:53.575Z,7.10
2023-01-09T14:18:25.392Z,7.00
2023-01-09T14:21:01.348Z,7.00
2023-01-09T14:23:51.082Z,7.00
2023-01-09T14:26:25.430Z,7.00
2023-01-09T14:28:52.701Z,7.00
2023-01-09T14:31:31.394Z,7.00
2023-01-09T14:34:30.975Z,7.00
2023-01-09T14:37:01.349Z,7.00
2023-01-09T14:39:31.991Z,7.00
2023-01-09T14:42:06.943Z,6.90
2023-01-09T14:44:40.950Z,7.00
2023-01-09T14:47:40.106Z,7.00
2023-01-09T14:50:34.348Z,6.90
2023-01-09T14:53:10.590Z,6.90
2023-01-09T14:55:54.461Z,7.00
2023-01-09T14:58:29.322Z,7.00
2023-01-09T15:01:16.683Z,7.00
2023-01-09T15:03:59.201Z,7.00
2023-01-09T15:06:30.018Z,7.00
2023-01-09T15:09:02.969Z,7.00
2023-01-09T15:11:32.142Z,7.00
2023-01-09T15:14:03.755Z,7.10
2023-01-09T15:16:32.979Z,7.10
2023-01-09T15:19:03.853Z,7.10
2023-01-09T15:21:32.682Z,7.00
2023-01-09T15:24:22.328Z,7.10
2023-01-09T15:26:55.017Z,7.10
2023-01-09T15:29:23.000Z,7.00
2023-01-09T15:32:00.405Z,7.00
2023-01-09T15:34:27.738Z,6.90
2023-01-09T15:36:55.289Z,6.90
2023-01-09T15:39:31.556Z,6.90
2023-01-09T15:42:19.158Z,6.90
2023-01-09T15:44:48.700Z,6.90
2023-01-09T15:47:20.503Z,6.90
2023-01-09T15:49:48.046Z,6.90
2023-01-09T15:52:17.082Z,6.90
2023-01-09T15:54:49.262Z,7.00
2023-01-09T15:57:25.838Z,7.00
2023-01-09T15:59:54.166Z,7.00
2023-01-09T16:02:41.625Z,6.90
2023-01-09T16:05:18.417Z,6.90
2023-01-09T16:07:47.157Z,7.00
2023-01-09T16:10:26.609Z,7.00
2023-01-09T16:12:54.879Z,7.00
2023-01-09T16:15:22.664Z,7.00
2023-01-09T16:18:17.469Z,6.90
2023-01-09T16:20:45.610Z,6.90
2023-01-09T16:23:28.733Z,6.80
2023-01-09T16:26:12.542Z,6.70
2023-01-09T16:28:41.136Z,6.60
2023-01-09T16:31:28.955Z,6.50
2023-01-09T16:34:06.968Z,6.40
2023-01-09T16:36:35.811Z,6.30
2023-01-09T16:39:04.239Z,6.20
2023-01-09T16:41:50.294Z,6.20
2023-01-09T16:44:19.359Z,6.10
2023-01-09T16:46:46.807Z,6.10
2023-01-09T16:49:24.647Z,6.10
2023-01-09T16:51:52.071Z,6.10
2023-01-09T16:54:20.079Z,6.10
2023-01-09T16:56:50.826Z,6.10
2023-01-09T16:59:27.027Z,6.10
2023-01-09T17:01:55.159Z,6.10
2023-01-09T17:04:23.920Z,6.20
2023-01-09T17:06:51.555Z,6.20
2023-01-09T17:09:24.102Z,6.30
2023-01-09T17:11:52.320Z,6.30
2023-01-09T17:14:19.356Z,6.30
2023-01-09T17:16:46.890Z,6.30
2023-01-09T17:19:19.582Z,6.30
2023-01-09T17:21:47.230Z,6.30
2023-01-09T17:24:33.337Z,6.20
2023-01-09T17:27:20.838Z,6.20
2023-01-09T17:29:48.594Z,6.20
2023-01-09T17:32:17.612Z,6.20
2023-01-09T17:34:44.899Z,6.20
2023-01-09T17:37:16.605Z,6.20
2023-01-09T17:39:45.299Z,6.20
2023-01-09T17:42:12.338Z,6.10
2023-01-09T17:44:39.527Z,6.20
2023-01-09T17:47:07.423Z,6.20
2023-01-09T17:49:34.539Z,6.20
2023-01-09T17:52:01.609Z,6.20
2023-01-09T17:54:28.772Z,6.20
2023-01-09T17:56:55.938Z,6.20
2023-01-09T17:59:22.980Z,6.20
2023-01-09T18:01:50.221Z,6.20
2023-01-09T18:04:17.471Z,6.10
2023-01-09T18:06:45.093Z,6.10
2023-01-09T18:09:17.482Z,6.10
2023-01-09T18:11:45.204Z,6.10
2023-01-09T18:14:13.751Z,6.10
2023-01-09T18:16:41.146Z,6.10
2023-01-09T18:19:09.390Z,6.00
2023-01-09T18:21:36.419Z,5.90
2023-01-09T18:24:03.623Z,5.90
2023-01-09T18:26:31.467Z,5.90
2023-01-09T18:29:00.378Z,5.80
2023-01-09T18:31:29.033Z,5.80
2023-01-09T18:33:57.691Z,5.80
2023-01-09T18:36:30.330Z,5.70
2023-01-09T18:38:59.404Z,5.70
2023-01-09T18:41:27.341Z,5.60
2023-01-09T18:44:01.079Z,5.60
2023-01-09T18:46:32.279Z,5.50
2023-01-09T18:49:02.032Z,5.50
2023-01-09T18:51:29.764Z,5.40
2023-01-09T18:53:57.414Z,5.30
2023-01-09T18:56:24.927Z,5.30
2023-01-09T18:58:57.238Z,5.30
2023-01-09T19:01:24.887Z,5.20
2023-01-09T19:03:52.294Z,5.10
2023-01-09T19:06:19.557Z,5.10
2023-01-09T19:08:46.771Z,5.00
2023-01-09T19:11:14.001Z,4.90
2023-01-09T19:13:41.308Z,4.90
2023-01-09T19:16:08.793Z,4.90
2023-01-09T19:18:38.603Z,4.80
2023-01-09T19:21:29.883Z,4.70
2023-01-09T19:23:58.921Z,4.70
2023-01-09T19:26:27.995Z,4.70
2023-01-09T19:28:57.627Z,4.70
2023-01-09T19:31:28.326Z,4.60
2023-01-09T19:33:56.508Z,4.50
2023-01-09T19:36:23.574Z,4.50
2023-01-09T19:38:59.546Z,4.40
2023-01-09T19:41:27.222Z,4.40
2023-01-09T19:43:54.568Z,4.40
2023-01-09T19:46:24.142Z,4.40
2023-01-09T19:48:52.340Z,4.40
2023-01-09T19:51:21.313Z,4.40
2023-01-09T19:56:28.648Z,4.50
2023-01-09T19:58:58.349Z,4.50
2023-01-09T20:01:27.934Z,4.50
2023-01-09T20:04:02.869Z,4.50
2023-01-09T20:06:31.011Z,4.60
2023-01-09T20:09:00.799Z,4.50
2023-01-09T20:11:31.537Z,4.60
2023-01-09T20:13:58.688Z,4.60
2023-01-09T20:16:30.240Z,4.50
2023-01-09T20:18:59.756Z,4.60
2023-01-09T20:21:28.435Z,4.60
2023-01-09T20:23:58.309Z,4.60
2023-01-09T20:26:26.049Z,4.60
2023-01-09T20:28:53.856Z,4.60
2023-01-09T20:31:23.170Z,4.70
2023-01-09T20:33:53.724Z,4.70
2023-01-09T20:36:27.448Z,4.70
2023-01-09T20:38:55.371Z,4.80
2023-01-09T20:41:23.009Z,4.80
2023-01-09T20:43:55.808Z,4.80
2023-01-09T20:46:24.681Z,4.80
2023-01-09T20:48:54.583Z,4.80
2023-01-09T20:51:21.785Z,4.80
2023-01-09T20:53:56.290Z,4.80
2023-01-09T20:56:23.954Z,4.80
2023-01-09T20:58:51.841Z,4.90
2023-01-09T21:01:19.678Z,4.90
2023-01-09T21:03:47.015Z,5.00
2023-01-09T21:06:15.652Z,5.00
2023-01-09T21:08:43.651Z,5.00
2023-01-09T21:11:11.694Z,5.00
2023-01-09T21:13:39.511Z,5.00
2023-01-09T21:16:10.355Z,5.00
2023-01-09T21:18:38.684Z,5.00
2023-01-09T21:21:08.397Z,5.00
2023-01-09T21:23:35.910Z,5.00
2023-01-09T21:26:09.296Z,5.00
2023-01-09T21:28:46.684Z,5.10
2023-01-09T21:31:14.256Z,5.10
2023-01-09T21:33:41.531Z,5.10
2023-01-09T21:36:09.916Z,5.10
2023-01-09T21:38:37.240Z,5.10
2023-01-09T21:41:22.964Z,5.20
2023-01-09T21:44:08.507Z,5.20
2023-01-09T21:46:55.836Z,5.20
2023-01-09T21:49:26.484Z,5.20
2023-01-09T21:51:54.768Z,5.20
2023-01-09T21:54:26.030Z,5.20
2023-01-09T21:56:53.411Z,5.20
2023-01-09T21:59:20.755Z,5.20
2023-01-09T22:01:51.701Z,5.20
2023-01-09T22:04:22.399Z,5.20
2023-01-09T22:06:49.843Z,5.20
2023-01-09T22:09:17.270Z,5.20
2023-01-09T22:11:44.673Z,5.20
2023-01-09T22:14:17.500Z,5.20
2023-01-09T22:16:45.870Z,5.20
2023-01-09T22:19:14.359Z,5.20
2023-01-09T22:21:41.460Z,5.20
2023-01-09T22:24:09.394Z,5.20
2023-01-09T22:26:36.476Z,5.20
2023-01-09T22:29:03.544Z,5.30
2023-01-09T22:31:32.935Z,5.20
2023-01-09T22:34:01.361Z,5.30
2023-01-09T22:36:30.000Z,5.30
2023-01-09T22:38:58.539Z,5.30
2023-01-09T22:41:27.552Z,5.20
2023-01-09T22:43:54.562Z,5.20
2023-01-09T22:46:21.613Z,5.20
2023-01-09T22:48:48.896Z,5.20
2023-01-09T22:51:18.535Z,5.20
2023-01-09T22:53:46.296Z,5.20
2023-01-09T22:56:16.460Z,5.20
2023-01-09T22:58:44.150Z,5.20
2023-01-09T23:01:12.877Z,5.20
2023-01-09T23:03:40.489Z,5.20
2023-01-09T23:06:13.696Z,5.20
2023-01-09T23:08:41.411Z,5.20
2023-01-09T23:11:12.393Z,5.20
2023-01-09T23:13:39.596Z,5.20
2023-01-09T23:16:07.553Z,5.20
2023-01-09T23:18:35.131Z,5.20
2023-01-09T23:21:04.153Z,5.30
2023-01-09T23:23:32.219Z,5.20
2023-01-09T23:26:02.271Z,5.30
2023-01-09T23:28:30.653Z,5.30
2023-01-09T23:30:58.047Z,5.30
2023-01-09T23:33:25.529Z,5.30
2023-01-09T23:35:52.625Z,5.30
2023-01-09T23:38:20.669Z,5.30
2023-01-09T23:40:47.889Z,5.30
2023-01-09T23:43:15.569Z,5.40
2023-01-09T23:45:44.976Z,5.40
2023-01-09T23:48:14.251Z,5.30
2023-01-09T23:50:49.181Z,5.40
2023-01-09T23:53:16.816Z,5.40
2023-01-09T23:55:44.467Z,5.40
2023-01-09T23:58:11.955Z,5.40
